createdAt,value
2022-12-13T00:01:45.353Z,98646.17
2022-12-13T00:04:12.254Z,98646.95
2022-12-13T00:06:38.913Z,98646.00
2022-12-13T00:09:05.590Z,98651.46
2022-12-13T00:11:32.347Z,98653.48
2022-12-13T00:13:59.473Z,98661.87
2022-12-13T00:16:26.392Z,98665.13
2022-12-13T00:18:55.401Z,98668.79
2022-12-13T00:21:23.445Z,98670.48
2022-12-13T00:23:50.564Z,98670.28
2022-12-13T00:26:19.083Z,98669.70
2022-12-13T00:28:48.121Z,98665.70
2022-12-13T00:31:53.605Z,98663.63
2022-12-13T00:34:02.172Z,98661.17
2022-12-13T00:36:28.865Z,98661.46
2022-12-13T00:39:01.709Z,98666.27
2022-12-13T00:41:33.101Z,98667.89
2022-12-13T00:43:59.895Z,98665.01
2022-12-13T00:46:26.857Z,98671.14
2022-12-13T00:48:55.234Z,98665.54
2022-12-13T00:51:22.088Z,98668.91
2022-12-13T00:53:48.640Z,98671.71
2022-12-13T00:56:21.396Z,98671.75
2022-12-13T00:58:52.187Z,98666.65
2022-12-13T01:01:21.489Z,98670.40
2022-12-13T01:03:49.355Z,98679.45
2022-12-13T01:06:17.756Z,98684.19
2022-12-13T01:08:44.753Z,98680.32
2022-12-13T01:11:11.444Z,98685.79
2022-12-13T01:13:38.312Z,98678.91
2022-12-13T01:16:05.546Z,98679.20
2022-12-13T01:18:32.244Z,98673.82
2022-12-13T01:21:11.308Z,98679.90
2022-12-13T01:23:38.024Z,98678.10
2022-12-13T01:26:05.924Z,98675.27
2022-12-13T01:28:32.670Z,98679.88
2022-12-13T01:31:00.988Z,98683.67
2022-12-13T01:33:27.970Z,98684.36
2022-12-13T01:35:54.693Z,98686.71
2022-12-13T01:38:21.574Z,98692.80
2022-12-13T01:40:58.799Z,98694.25
2022-12-13T01:43:29.257Z,98694.70
2022-12-13T01:45:55.922Z,98698.81
2022-12-13T01:48:28.158Z,98695.86
2022-12-13T01:50:57.115Z,98695.41
2022-12-13T01:53:26.729Z,98689.16
2022-12-13T01:55:54.996Z,98685.55
2022-12-13T01:58:21.627Z,98682.12
2022-12-13T02:00:48.481Z,98680.09
2022-12-13T02:03:21.204Z,98676.42
2022-12-13T02:05:56.476Z,98677.38
2022-12-13T02:08:27.506Z,98680.38
2022-12-13T03:57:32.996Z,98687.72
2022-12-13T03:59:59.737Z,98681.05
2022-12-13T04:02:31.007Z,98681.83
2022-12-13T04:04:58.353Z,98681.70
2022-12-13T04:07:27.693Z,98683.02
2022-12-13T04:10:01.131Z,98683.91
2022-12-13T04:12:48.591Z,98686.80
2022-12-13T04:15:15.762Z,98692.69
2022-12-13T04:17:42.732Z,98692.02
2022-12-13T04:20:10.057Z,98690.80
2022-12-13T04:22:36.792Z,98696.71
2022-12-13T04:25:04.501Z,98692.85
2022-12-13T04:27:31.184Z,98696.38
2022-12-13T04:29:57.832Z,98697.21
2022-12-13T04:32:26.622Z,98698.98
2022-12-13T04:35:00.749Z,98699.59
2022-12-13T04:37:28.222Z,98701.08
2022-12-13T04:40:00.812Z,98698.48
2022-12-13T04:42:28.447Z,98694.94
2022-12-13T04:44:55.130Z,98694.25
2022-12-13T04:47:21.794Z,98693.84
2022-12-13T04:49:48.585Z,98690.23
2022-12-13T04:52:22.458Z,98691.98
2022-12-13T04:54:55.640Z,98701.25
2022-12-13T04:57:23.029Z,98708.03
2022-12-13T04:59:49.695Z,98707.98
2022-12-13T05:02:23.466Z,98705.03
2022-12-13T05:04:54.338Z,98697.21
2022-12-13T05:07:23.023Z,98701.38
2022-12-13T05:09:49.711Z,98703.59
2022-12-13T05:12:22.521Z,98708.33
2022-12-13T05:14:49.673Z,98714.86
2022-12-13T05:17:16.740Z,98719.96
2022-12-13T05:19:43.547Z,98725.80
2022-12-13T05:22:19.850Z,98725.04
2022-12-13T05:24:47.707Z,98729.55
2022-12-13T05:27:25.701Z,98723.87
2022-12-13T05:30:05.191Z,98727.53
2022-12-13T05:32:42.745Z,98730.14
2022-12-13T05:35:12.628Z,98723.39
2022-12-13T05:37:39.426Z,98723.60
2022-12-13T05:40:06.985Z,98728.74
2022-12-13T05:42:33.695Z,98733.23
2022-12-13T05:45:00.360Z,98740.56
2022-12-13T05:47:27.020Z,98735.98
2022-12-13T05:49:53.744Z,98719.48
2022-12-13T05:52:21.542Z,98715.52
2022-12-13T05:54:57.348Z,98715.02
2022-12-13T05:57:28.103Z,98713.91
2022-12-13T05:59:54.864Z,98713.17
2022-12-13T06:02:22.184Z,98717.54
2022-12-13T06:04:49.043Z,98725.65
2022-12-13T06:07:15.668Z,98729.97
2022-12-13T06:09:42.752Z,98728.66
2022-12-13T06:12:30.880Z,98726.19
2022-12-13T06:15:00.936Z,98725.08
2022-12-13T06:17:32.592Z,98722.68
2022-12-13T06:19:59.399Z,98725.37
2022-12-13T06:22:26.408Z,98725.49
2022-12-13T06:24:53.408Z,98727.42
2022-12-13T06:27:21.193Z,98732.62
2022-12-13T06:29:47.860Z,98732.82
2022-12-13T06:32:14.553Z,98733.93
2022-12-13T06:34:41.206Z,98742.63
2022-12-13T06:37:09.124Z,98746.77
2022-12-13T06:39:36.384Z,98747.47
2022-12-13T06:42:05.994Z,98746.32
2022-12-13T06:44:32.820Z,98742.20
2022-12-13T06:47:10.782Z,98753.44
2022-12-13T06:49:39.423Z,98754.39
2022-12-13T06:52:06.317Z,98760.77
2022-12-13T06:54:33.253Z,98756.23
2022-12-13T06:56:59.971Z,98760.79
2022-12-13T06:59:26.592Z,98772.15
2022-12-13T07:01:53.442Z,98782.04
2022-12-13T07:04:29.857Z,98785.98
2022-12-13T07:07:01.621Z,98786.20
2022-12-13T07:09:32.172Z,98789.01
2022-12-13T07:11:59.064Z,98793.67
2022-12-13T07:14:25.716Z,98801.25
2022-12-13T07:16:55.462Z,98806.27
2022-12-13T07:19:26.191Z,98803.17
2022-12-13T07:22:01.705Z,98799.53
2022-12-13T07:24:28.369Z,98799.32
2022-12-13T07:26:55.036Z,98799.29
2022-12-13T07:29:22.242Z,98798.72
2022-12-13T07:31:49.984Z,98799.95
2022-12-13T07:34:16.900Z,98803.54
2022-12-13T07:36:43.491Z,98799.55
2022-12-13T07:39:10.572Z,98795.98
2022-12-13T07:41:37.421Z,98798.56
2022-12-13T07:44:04.940Z,98801.90
2022-12-13T07:46:33.400Z,98809.60
2022-12-13T07:49:04.037Z,98811.83
2022-12-13T07:51:33.790Z,98804.08
2022-12-13T07:54:00.816Z,98808.39
2022-12-13T07:56:33.769Z,98813.54
2022-12-13T07:59:00.438Z,98811.48
2022-12-13T08:01:27.178Z,98807.40
2022-12-13T08:03:54.498Z,98813.29
2022-12-13T08:06:21.160Z,98818.39
2022-12-13T08:08:51.037Z,98812.58
2022-12-13T08:13:03.805Z,98805.42
2022-12-13T08:15:30.552Z,98813.74
2022-12-13T08:17:57.414Z,98818.27
2022-12-13T08:20:24.098Z,98822.30
2022-12-13T08:23:01.946Z,98818.93
2022-12-13T08:25:29.795Z,98822.05
2022-12-13T08:27:56.455Z,98823.75
2022-12-13T08:30:28.655Z,98821.40
2022-12-13T08:32:55.982Z,98825.93
2022-12-13T08:35:22.605Z,98825.56
2022-12-13T08:37:49.330Z,98825.40
2022-12-13T08:40:16.336Z,98824.00
2022-12-13T08:42:44.044Z,98817.86
2022-12-13T08:45:10.979Z,98816.06
2022-12-13T08:47:41.716Z,98811.28
2022-12-13T08:50:08.992Z,98808.56
2022-12-13T08:52:40.321Z,98799.70
2022-12-13T08:55:10.305Z,98805.68
2022-12-13T08:57:37.665Z,98809.17
2022-12-13T09:00:08.307Z,98801.92
2022-12-13T09:02:38.027Z,98806.46
2022-12-13T09:05:07.313Z,98803.77
2022-12-13T09:07:35.870Z,98807.02
2022-12-13T09:10:07.303Z,98806.52
2022-12-13T09:12:50.288Z,98803.23
2022-12-13T09:15:21.826Z,98803.42
2022-12-13T09:17:52.507Z,98806.10
2022-12-13T09:20:28.569Z,98806.52
2022-12-13T09:23:01.597Z,98802.02
2022-12-13T09:25:36.952Z,98798.48
2022-12-13T09:28:08.425Z,98795.36
2022-12-13T09:30:38.320Z,98793.25
2022-12-13T09:33:28.510Z,98788.30
2022-12-13T09:35:52.226Z,98790.02
2022-12-13T09:38:19.256Z,98785.61
2022-12-13T09:40:46.065Z,98791.16
2022-12-13T09:43:21.921Z,98794.59
2022-12-13T09:45:50.568Z,98796.69
2022-12-13T09:48:22.711Z,98794.95
2022-12-13T09:50:57.972Z,98791.91
2022-12-13T09:53:37.369Z,98789.48
2022-12-13T09:56:10.760Z,98779.64
2022-12-13T09:58:38.136Z,98784.20
2022-12-13T10:01:04.825Z,98781.16
2022-12-13T10:03:31.483Z,98776.35
2022-12-13T10:06:14.220Z,98771.63
2022-12-13T10:08:57.262Z,98773.11
2022-12-13T10:11:32.200Z,98766.17
2022-12-13T10:14:05.770Z,98758.71
2022-12-13T10:16:38.602Z,98761.38
2022-12-13T10:19:30.237Z,98757.05
2022-12-13T10:22:01.278Z,98758.55
2022-12-13T10:25:05.162Z,98758.71
2022-12-13T10:27:40.292Z,98753.97
2022-12-13T10:30:28.359Z,98755.79
2022-12-13T10:32:59.454Z,98757.84
2022-12-13T10:35:27.891Z,98755.90
2022-12-13T10:37:55.495Z,98749.77
2022-12-13T10:40:33.906Z,98752.45
2022-12-13T10:43:17.416Z,98748.21
2022-12-13T10:45:56.866Z,98746.58
2022-12-13T10:48:38.844Z,98744.64
2022-12-13T10:51:07.772Z,98736.55
2022-12-13T10:53:55.556Z,98731.78
2022-12-13T10:56:23.916Z,98722.84
2022-12-13T10:59:17.299Z,98717.28
2022-12-13T11:01:44.498Z,98714.66
2022-12-13T11:04:29.228Z,98715.73
2022-12-13T11:06:57.190Z,98720.03
2022-12-13T11:09:26.957Z,98721.15
2022-12-13T11:11:58.310Z,98718.10
2022-12-13T11:14:37.690Z,98720.58
2022-12-13T11:17:10.523Z,98724.02
2022-12-13T11:19:44.490Z,98723.08
2022-12-13T11:22:29.389Z,98716.80
2022-12-13T11:25:00.375Z,98713.39
2022-12-13T11:27:36.104Z,98716.67
2022-12-13T11:30:13.192Z,98712.17
2022-12-13T11:33:09.117Z,98713.08
2022-12-13T11:35:47.796Z,98715.23
2022-12-13T11:38:20.533Z,98713.70
2022-12-13T11:40:49.797Z,98713.17
2022-12-13T11:43:50.325Z,98717.61
2022-12-13T11:46:19.861Z,98715.80
2022-12-13T11:48:50.977Z,98713.46
2022-12-13T11:51:22.265Z,98705.67
2022-12-13T11:54:13.144Z,98707.86
2022-12-13T11:56:54.855Z,98713.21
2022-12-13T11:59:44.735Z,98720.04
2022-12-13T12:02:27.515Z,98721.05
2022-12-13T12:05:00.050Z,98722.11
2022-12-13T12:07:33.868Z,98726.68
2022-12-13T12:10:06.738Z,98726.88
2022-12-13T12:12:34.896Z,98730.47
2022-12-13T12:15:26.719Z,98732.72
2022-12-13T12:17:55.461Z,98733.02
2022-12-13T12:20:48.405Z,98736.23
2022-12-13T12:23:23.743Z,98739.99
2022-12-13T12:25:52.614Z,98740.77
2022-12-13T12:28:31.141Z,98740.38
2022-12-13T12:31:08.167Z,98739.38
2022-12-13T12:33:50.737Z,98740.42
2022-12-13T12:36:20.483Z,98740.06
2022-12-13T12:38:52.945Z,98736.15
2022-12-13T12:41:22.610Z,98740.48
2022-12-13T12:44:18.769Z,98744.80
2022-12-13T12:47:31.567Z,98743.59
2022-12-13T12:49:56.299Z,98752.12
2022-12-13T12:52:40.817Z,98752.16
2022-12-13T12:55:19.329Z,98745.17
2022-12-13T12:58:03.730Z,98746.44
2022-12-13T13:00:43.872Z,98747.39
2022-12-13T13:03:22.829Z,98747.73
2022-12-13T19:28:37.379Z,98894.39
2022-12-13T19:31:10.023Z,98896.64
2022-12-13T19:33:37.157Z,98897.48
2022-12-13T19:36:04.510Z,98897.15
2022-12-13T19:38:31.581Z,98900.70
2022-12-13T19:40:58.443Z,98898.14
2022-12-13T19:43:25.717Z,98902.22
2022-12-13T19:45:53.181Z,98903.97
2022-12-13T19:48:19.987Z,98910.05
2022-12-13T19:50:47.400Z,98909.48
2022-12-13T19:53:14.342Z,98913.37
2022-12-13T19:55:48.340Z,98914.10
2022-12-13T19:58:15.596Z,98919.90
2022-12-13T20:00:42.366Z,98916.52
2022-12-13T20:03:09.187Z,98918.20
2022-12-13T20:05:36.186Z,98921.61
2022-12-13T20:08:02.958Z,98921.43
2022-12-13T20:10:29.926Z,98922.41
2022-12-13T20:12:57.359Z,98925.14
2022-12-13T20:15:24.370Z,98926.96
2022-12-13T20:17:51.799Z,98929.78
2022-12-13T20:20:22.431Z,98931.40
2022-12-13T20:22:49.421Z,98934.09
2022-12-13T20:25:16.177Z,98936.77
2022-12-13T20:27:44.237Z,98939.35
2022-12-13T20:30:11.470Z,98938.67
2022-12-13T20:32:38.459Z,98941.80
2022-12-13T20:35:05.761Z,98942.77
2022-12-13T20:37:32.610Z,98945.42
2022-12-13T20:39:59.860Z,98953.11
2022-12-13T20:42:26.895Z,98953.48
2022-12-13T20:44:53.800Z,98954.08
2022-12-13T20:47:20.461Z,98954.88
2022-12-13T20:49:48.489Z,98956.05
2022-12-13T20:52:17.007Z,98956.29
2022-12-13T20:54:43.689Z,98956.38
2022-12-13T20:57:11.273Z,98963.04
2022-12-13T20:59:37.996Z,98962.16
2022-12-13T21:02:05.129Z,98961.92
2022-12-13T21:04:31.832Z,98963.83
2022-12-13T21:06:58.635Z,98968.17
2022-12-13T21:09:25.283Z,98965.10
2022-12-13T21:11:51.996Z,98967.00
2022-12-13T21:14:25.955Z,98967.86
2022-12-13T21:16:54.178Z,98966.84
2022-12-13T21:19:39.465Z,98960.92
2022-12-13T21:22:06.793Z,98962.06
2022-12-13T21:24:33.496Z,98957.09
2022-12-13T21:27:00.197Z,98955.88
2022-12-13T21:29:26.892Z,98950.18
2022-12-13T21:31:54.685Z,98957.27
2022-12-13T21:34:22.298Z,98959.52
2022-12-13T21:36:50.095Z,98965.36
2022-12-13T21:39:24.724Z,98967.34
2022-12-13T21:41:52.096Z,98968.29
2022-12-13T21:44:18.906Z,98969.13
2022-12-13T21:49:32.308Z,98971.89
2022-12-13T21:51:58.972Z,98969.70
2022-12-13T21:54:25.641Z,98972.98
2022-12-13T21:57:10.800Z,98972.33
2022-12-13T21:59:37.499Z,98980.61
2022-12-13T22:02:12.235Z,98979.14
2022-12-13T22:04:45.828Z,98979.96
2022-12-13T22:07:34.015Z,98975.60
2022-12-13T22:10:01.192Z,98977.29
2022-12-13T22:12:36.142Z,98976.73
2022-12-13T22:15:04.630Z,98975.11
2022-12-13T22:17:35.776Z,98973.59
2022-12-13T22:20:08.150Z,98969.65
2022-12-13T22:22:34.906Z,98965.99
2022-12-13T22:25:01.652Z,98972.34
2022-12-13T22:27:28.312Z,98974.77
2022-12-13T22:29:59.020Z,98986.02
2022-12-13T22:32:27.680Z,98986.52
2022-12-13T22:34:54.471Z,98984.00
2022-12-13T22:37:21.299Z,98988.05
2022-12-13T22:39:47.910Z,98984.19
2022-12-13T22:42:14.646Z,98984.13
2022-12-13T22:44:41.364Z,98985.84
2022-12-13T22:47:08.055Z,98987.55
2022-12-13T22:49:34.783Z,98985.17
2022-12-13T22:52:01.536Z,98988.84
2022-12-13T22:54:28.196Z,98997.66
2022-12-13T22:56:55.142Z,99000.98
2022-12-13T22:59:21.740Z,99002.34
2022-12-13T23:01:50.257Z,99002.20
2022-12-13T23:04:16.915Z,98999.65
2022-12-13T23:06:43.586Z,99005.23
2022-12-13T23:09:11.829Z,99009.30
2022-12-13T23:11:57.203Z,99009.51
2022-12-13T23:14:28.840Z,99011.82
2022-12-13T23:16:55.821Z,99012.85
2022-12-13T23:22:09.177Z,99018.64
2022-12-13T23:24:35.812Z,99020.19
2022-12-13T23:27:02.804Z,99015.54
2022-12-13T23:29:29.493Z,99021.17
2022-12-13T23:31:56.191Z,99022.07
2022-12-13T23:34:22.838Z,99025.27
2022-12-13T23:36:49.648Z,99024.97
2022-12-13T23:39:16.269Z,99027.89
2022-12-13T23:41:43.002Z,99030.80
2022-12-13T23:44:10.072Z,99031.64
2022-12-13T23:46:36.886Z,99033.90
2022-12-13T23:49:04.715Z,99038.79
2022-12-13T23:51:31.859Z,99042.34
2022-12-13T23:53:58.620Z,99041.66
2022-12-13T23:56:25.327Z,99041.94
2022-12-13T23:58:52.095Z,99041.52
